createdAt,value
2023-01-03T00:00:26.974Z,3.67
2023-01-03T00:01:30.124Z,3.67
2023-01-03T00:02:31.795Z,3.67
2023-01-03T00:03:33.370Z,3.69
2023-01-03T00:04:35.035Z,3.72
2023-01-03T00:05:36.751Z,3.76
2023-01-03T00:06:46.598Z,3.79
2023-01-03T00:07:48.108Z,3.83
2023-01-03T00:08:50.447Z,3.86
2023-01-03T00:09:51.954Z,3.90
2023-01-03T00:10:53.519Z,3.91
2023-01-03T00:12:13.665Z,3.95
2023-01-03T00:13:15.190Z,3.99
2023-01-03T00:14:25.657Z,4.00
2023-01-03T00:15:27.400Z,4.04
2023-01-03T00:16:28.942Z,4.07
2023-01-03T00:17:30.547Z,4.10
2023-01-03T00:18:32.088Z,4.14
2023-01-03T00:19:36.650Z,4.15
2023-01-03T00:20:38.287Z,4.12
2023-01-03T00:21:41.458Z,4.13
2023-01-03T00:22:43.022Z,4.08
2023-01-03T00:23:44.630Z,4.05
2023-01-03T00:24:47.881Z,4.02
2023-01-03T00:25:49.409Z,3.95
2023-01-03T00:26:51.439Z,3.91
2023-01-03T00:27:53.067Z,3.85
2023-01-03T00:28:54.652Z,3.92
2023-01-03T00:29:56.216Z,3.91
2023-01-03T00:30:57.786Z,3.90
2023-01-03T00:31:59.906Z,3.84
2023-01-03T00:33:01.652Z,3.72
2023-01-03T00:34:04.115Z,3.61
2023-01-03T00:35:06.290Z,3.52
2023-01-03T00:36:09.585Z,3.49
2023-01-03T00:37:11.374Z,3.44
2023-01-03T00:38:12.916Z,3.42
2023-01-03T00:39:14.905Z,3.39
2023-01-03T00:40:16.536Z,3.37
2023-01-03T00:41:19.764Z,3.40
2023-01-03T00:42:21.303Z,3.41
2023-01-03T00:43:31.500Z,3.44
2023-01-03T00:44:33.606Z,3.48
2023-01-03T00:45:35.828Z,3.50
2023-01-03T00:46:37.505Z,3.48
2023-01-03T00:47:39.097Z,3.51
2023-01-03T00:48:41.411Z,3.52
2023-01-03T00:49:42.947Z,3.54
2023-01-03T00:50:44.570Z,3.55
2023-01-03T00:51:46.145Z,3.51
2023-01-03T00:52:47.693Z,3.49
2023-01-03T00:53:52.146Z,3.50
2023-01-03T00:54:53.732Z,3.51
2023-01-03T00:55:55.937Z,3.52
2023-01-03T00:56:57.477Z,3.52
2023-01-03T00:57:59.023Z,3.52
2023-01-03T00:59:01.171Z,3.52
2023-01-03T01:00:03.928Z,3.52
2023-01-03T01:01:11.606Z,3.49
2023-01-03T01:02:13.431Z,3.46
2023-01-03T01:03:18.062Z,3.43
2023-01-03T01:04:21.471Z,3.37
2023-01-03T01:05:23.420Z,3.34
2023-01-03T01:06:34.004Z,3.36
2023-01-03T01:07:35.960Z,3.32
2023-01-03T01:08:37.605Z,3.30
2023-01-03T01:09:39.175Z,3.33
2023-01-03T01:11:01.829Z,3.37
2023-01-03T01:12:05.558Z,3.42
2023-01-03T01:13:07.074Z,3.47
2023-01-03T01:14:22.422Z,3.49
2023-01-03T01:15:24.127Z,3.53
2023-01-03T01:16:31.378Z,3.56
2023-01-03T01:17:32.970Z,3.62
2023-01-03T01:18:35.697Z,3.70
2023-01-03T01:19:40.291Z,3.68
2023-01-03T01:20:41.861Z,3.67
2023-01-03T01:21:44.194Z,3.62
2023-01-03T01:22:45.762Z,3.63
2023-01-03T01:23:47.379Z,3.65
2023-01-03T01:24:49.182Z,3.65
2023-01-03T01:25:50.749Z,3.60
2023-01-03T01:26:52.539Z,3.47
2023-01-03T01:27:54.056Z,3.39
2023-01-03T01:28:56.090Z,3.31
2023-01-03T01:29:57.847Z,3.28
2023-01-03T01:31:00.847Z,3.28
2023-01-03T01:32:03.003Z,3.20
2023-01-03T01:33:04.581Z,3.11
2023-01-03T01:34:06.343Z,2.95
2023-01-03T01:35:08.283Z,2.71
2023-01-03T01:36:17.904Z,2.52
2023-01-03T01:37:19.436Z,2.40
2023-01-03T01:38:21.032Z,2.28
2023-01-03T01:39:25.497Z,2.17
2023-01-03T01:40:27.455Z,2.07
2023-01-03T01:41:49.775Z,2.01
2023-01-03T01:43:09.909Z,1.97
2023-01-03T01:44:48.418Z,1.94
2023-01-03T01:45:50.011Z,2.00
2023-01-03T01:46:52.636Z,1.97
2023-01-03T01:47:59.981Z,1.92
2023-01-03T01:49:10.895Z,1.91
2023-01-03T01:50:20.911Z,1.74
2023-01-03T01:51:24.694Z,1.54
2023-01-03T01:52:28.486Z,1.49
2023-01-03T01:53:34.596Z,1.51
2023-01-03T01:54:36.306Z,1.56
2023-01-03T01:55:48.230Z,1.60
2023-01-03T01:56:52.899Z,1.61
2023-01-03T01:57:54.706Z,1.56
2023-01-03T01:58:56.883Z,1.54
2023-01-03T01:59:58.468Z,1.50
2023-01-03T02:01:00.401Z,1.47
2023-01-03T02:02:02.520Z,1.51
2023-01-03T02:03:04.721Z,1.51
2023-01-03T02:04:17.505Z,1.56
2023-01-03T02:05:20.883Z,1.64
2023-01-03T02:06:24.239Z,1.71
2023-01-03T02:07:26.141Z,1.79
2023-01-03T02:08:27.670Z,1.80
2023-01-03T02:09:32.253Z,1.73
2023-01-03T02:10:45.884Z,1.67
2023-01-03T02:12:30.956Z,1.76
2023-01-03T02:14:03.257Z,1.82
2023-01-03T02:15:25.205Z,1.91
2023-01-03T02:16:26.830Z,2.03
2023-01-03T02:17:47.215Z,2.10
2023-01-03T02:18:54.937Z,2.19
2023-01-03T02:20:11.258Z,2.25
2023-01-03T02:21:34.389Z,2.26
2023-01-03T02:23:00.422Z,2.29
2023-01-03T02:24:34.301Z,2.38
2023-01-03T02:25:51.175Z,2.47
2023-01-03T02:27:30.856Z,2.55
2023-01-03T02:28:54.451Z,2.62
2023-01-03T02:30:20.256Z,2.69
2023-01-03T02:31:55.212Z,2.74
2023-01-03T02:33:22.513Z,2.79
2023-01-03T02:34:39.555Z,2.83
2023-01-03T02:36:09.617Z,2.88
2023-01-03T02:37:26.738Z,2.91
2023-01-03T02:38:48.989Z,2.90
2023-01-03T02:39:57.954Z,2.91
2023-01-03T02:41:05.687Z,2.92
2023-01-03T02:42:49.143Z,2.96
2023-01-03T02:44:25.989Z,2.83
2023-01-03T02:45:35.360Z,2.67
2023-01-03T02:47:01.132Z,2.73
2023-01-03T02:48:14.529Z,2.84
2023-01-03T02:49:28.595Z,2.89
2023-01-03T02:50:40.633Z,2.91
2023-01-03T02:51:47.482Z,2.93
2023-01-03T02:52:51.195Z,2.98
2023-01-03T02:53:53.409Z,3.04
2023-01-03T02:55:26.414Z,3.10
2023-01-03T02:56:35.197Z,3.17
2023-01-03T02:57:43.500Z,3.23
2023-01-03T02:58:49.137Z,3.27
2023-01-03T02:59:55.177Z,3.27
2023-01-03T03:01:02.023Z,3.25
2023-01-03T03:02:05.446Z,3.26
2023-01-03T03:03:13.670Z,3.27
2023-01-03T03:04:15.550Z,3.27
2023-01-03T03:05:23.750Z,3.31
2023-01-03T03:06:47.513Z,3.33
2023-01-03T03:07:49.227Z,3.37
2023-01-03T03:08:50.812Z,3.37
2023-01-03T03:10:11.303Z,3.42
2023-01-03T03:11:32.401Z,3.41
2023-01-03T03:12:55.784Z,3.39
2023-01-03T03:14:22.564Z,3.39
2023-01-03T03:15:32.752Z,3.38
2023-01-03T03:16:47.908Z,3.38
2023-01-03T03:17:54.351Z,3.36
2023-01-03T03:19:00.504Z,3.38
2023-01-03T03:20:20.844Z,3.40
2023-01-03T03:21:45.933Z,3.43
2023-01-03T03:23:14.958Z,3.45
2023-01-03T03:24:48.097Z,3.43
2023-01-03T03:25:53.946Z,3.44
2023-01-03T03:26:58.641Z,3.48
2023-01-03T03:28:23.924Z,3.46
2023-01-03T03:29:28.421Z,3.46
2023-01-03T03:30:33.774Z,3.44
2023-01-03T03:31:43.033Z,3.44
2023-01-03T03:32:47.593Z,3.42
2023-01-03T03:33:51.109Z,3.41
2023-01-03T03:34:55.990Z,3.45
2023-01-03T03:36:04.639Z,3.46
2023-01-03T03:37:13.884Z,3.42
2023-01-03T03:38:25.759Z,3.39
2023-01-03T03:39:49.533Z,3.35
2023-01-03T03:41:18.525Z,3.26
2023-01-03T03:42:44.475Z,3.22
2023-01-03T03:44:14.530Z,3.09
2023-01-03T03:45:25.493Z,2.97
2023-01-03T03:46:34.216Z,2.95
2023-01-03T03:47:35.759Z,2.97
2023-01-03T03:49:06.354Z,2.99
2023-01-03T03:50:35.330Z,2.95
2023-01-03T03:51:41.120Z,3.00
2023-01-03T03:52:46.622Z,3.04
2023-01-03T03:53:50.141Z,3.05
2023-01-03T03:54:59.175Z,3.05
2023-01-03T03:56:09.154Z,3.06
2023-01-03T03:57:13.356Z,3.07
2023-01-03T03:58:27.854Z,3.09
2023-01-03T03:59:31.908Z,3.11
2023-01-03T04:00:38.483Z,3.13
2023-01-03T04:01:42.576Z,3.13
2023-01-03T04:02:47.248Z,3.18
2023-01-03T04:03:52.150Z,3.21
2023-01-03T04:04:59.398Z,3.22
2023-01-03T04:06:10.362Z,3.18
2023-01-03T04:07:12.299Z,3.20
2023-01-03T04:08:13.979Z,3.22
2023-01-03T04:09:16.229Z,3.22
2023-01-03T04:10:20.225Z,3.25
2023-01-03T04:11:21.899Z,3.22
2023-01-03T04:12:23.642Z,3.23
2023-01-03T04:13:25.231Z,3.24
2023-01-03T04:14:26.843Z,3.25
2023-01-03T04:15:28.423Z,3.27
2023-01-03T04:16:30.112Z,3.32
2023-01-03T04:17:31.735Z,3.33
2023-01-03T04:18:33.762Z,3.33
2023-01-03T04:19:35.288Z,3.34
2023-01-03T04:20:36.816Z,3.33
2023-01-03T04:21:38.525Z,3.35
2023-01-03T04:22:40.158Z,3.36
2023-01-03T04:23:41.692Z,3.36
2023-01-03T04:24:43.241Z,3.39
2023-01-03T04:25:44.772Z,3.39
2023-01-03T04:26:46.593Z,3.41
2023-01-03T04:27:48.167Z,3.45
2023-01-03T04:28:49.701Z,3.48
2023-01-03T04:29:51.309Z,3.51
2023-01-03T04:30:52.853Z,3.52
2023-01-03T04:31:54.575Z,3.54
2023-01-03T04:32:57.354Z,3.55
2023-01-03T04:33:58.964Z,3.54
2023-01-03T04:35:00.543Z,3.51
2023-01-03T04:36:02.147Z,3.52
2023-01-03T04:37:03.791Z,3.49
2023-01-03T04:38:05.923Z,3.44
2023-01-03T04:39:10.344Z,3.43
2023-01-03T04:40:13.423Z,3.42
2023-01-03T04:41:15.906Z,3.43
2023-01-03T04:42:36.010Z,3.44
2023-01-03T04:43:56.011Z,3.44
2023-01-03T04:44:57.691Z,3.42
2023-01-03T04:45:59.539Z,3.40
2023-01-03T04:47:01.093Z,3.39
2023-01-03T04:48:02.751Z,3.36
2023-01-03T04:49:06.659Z,3.32
2023-01-03T04:50:09.663Z,3.31
2023-01-03T04:51:11.553Z,3.30
2023-01-03T04:52:14.800Z,3.27
2023-01-03T04:53:17.435Z,3.27
2023-01-03T04:54:19.005Z,3.26
2023-01-03T04:55:20.768Z,3.27
2023-01-03T04:56:31.378Z,3.30
2023-01-03T04:57:32.889Z,3.31
2023-01-03T04:58:34.454Z,3.28
2023-01-03T04:59:37.070Z,3.30
2023-01-03T05:00:38.649Z,3.33
2023-01-03T05:01:40.419Z,3.35
2023-01-03T05:02:42.113Z,3.36
2023-01-03T05:03:43.726Z,3.35
2023-01-03T05:04:45.408Z,3.36
2023-01-03T05:05:46.990Z,3.37
2023-01-03T05:06:48.554Z,3.38
2023-01-03T05:07:50.105Z,3.39
2023-01-03T05:08:51.902Z,3.41
2023-01-03T05:09:53.474Z,3.42
2023-01-03T05:10:55.074Z,3.45
2023-01-03T05:11:57.263Z,3.45
2023-01-03T05:13:02.248Z,3.47
2023-01-03T05:14:06.912Z,3.47
2023-01-03T05:15:11.091Z,3.46
2023-01-03T05:16:14.803Z,3.90
2023-01-03T05:17:19.287Z,4.31
2023-01-03T05:18:20.967Z,4.36
2023-01-03T05:19:23.958Z,4.35
2023-01-03T05:20:44.961Z,4.32
2023-01-03T05:22:05.208Z,4.28
2023-01-03T05:23:25.381Z,4.24
2023-01-03T05:24:55.815Z,4.19
2023-01-03T05:25:58.608Z,4.14
2023-01-03T05:27:02.847Z,4.10
2023-01-03T05:28:04.955Z,4.07
2023-01-03T05:29:07.594Z,4.05
2023-01-03T05:30:09.564Z,4.03
2023-01-03T05:31:11.179Z,4.03
2023-01-03T05:32:12.798Z,4.07
2023-01-03T05:33:14.799Z,4.09
2023-01-03T05:34:16.571Z,4.12
2023-01-03T05:35:18.480Z,4.07
2023-01-03T05:36:20.135Z,4.00
2023-01-03T05:37:23.100Z,3.89
2023-01-03T05:38:24.911Z,3.86
2023-01-03T05:39:26.479Z,3.84
2023-01-03T05:40:28.064Z,3.83
2023-01-03T05:41:48.125Z,3.82
2023-01-03T05:42:49.639Z,3.80
2023-01-03T05:43:51.153Z,3.74
2023-01-03T05:44:52.729Z,3.74
2023-01-03T05:45:54.422Z,3.73
2023-01-03T05:46:56.783Z,3.71
2023-01-03T05:47:58.688Z,3.71
2023-01-03T05:49:00.362Z,3.67
2023-01-03T05:50:01.931Z,3.63
2023-01-03T05:51:03.753Z,3.61
2023-01-03T05:52:05.488Z,3.62
2023-01-03T05:53:07.134Z,3.64
2023-01-03T05:54:12.531Z,3.64
2023-01-03T05:55:14.066Z,3.65
2023-01-03T05:56:17.094Z,3.64
2023-01-03T05:57:18.647Z,3.63
2023-01-03T05:58:20.279Z,3.64
2023-01-03T05:59:22.850Z,3.66
2023-01-03T06:00:24.817Z,3.67
2023-01-03T06:01:28.290Z,3.66
2023-01-03T06:02:29.987Z,3.68
2023-01-03T06:03:31.620Z,3.67
2023-01-03T06:04:33.223Z,3.68
2023-01-03T06:05:34.862Z,3.68
2023-01-03T06:06:36.472Z,3.71
2023-01-03T06:07:38.247Z,3.73
2023-01-03T06:08:40.222Z,3.72
2023-01-03T06:09:41.738Z,3.76
2023-01-03T06:10:43.303Z,3.77
2023-01-03T06:11:45.114Z,3.79
2023-01-03T06:12:46.772Z,3.80
2023-01-03T06:13:48.294Z,3.80
2023-01-03T06:14:49.853Z,3.79
2023-01-03T06:16:10.036Z,3.77
2023-01-03T06:17:30.116Z,3.73
2023-01-03T06:18:31.647Z,3.71
2023-01-03T06:19:33.184Z,3.68
2023-01-03T06:20:34.686Z,3.64
2023-01-03T06:21:37.105Z,3.58
2023-01-03T06:22:38.770Z,3.59
2023-01-03T06:23:40.312Z,3.60
2023-01-03T06:24:41.819Z,3.61
2023-01-03T06:25:43.318Z,3.59
2023-01-03T06:26:44.828Z,3.60
2023-01-03T06:27:46.855Z,3.62
2023-01-03T06:28:48.443Z,3.63
2023-01-03T06:29:50.017Z,3.65
2023-01-03T06:30:51.640Z,3.66
2023-01-03T06:31:53.261Z,3.68
2023-01-03T06:32:54.836Z,3.69
2023-01-03T06:33:56.429Z,3.67
2023-01-03T06:34:57.993Z,3.57
2023-01-03T06:36:11.699Z,3.52
2023-01-03T06:37:13.240Z,3.56
2023-01-03T06:38:14.811Z,3.53
2023-01-03T06:39:16.445Z,3.53
2023-01-03T06:40:19.344Z,3.51
2023-01-03T06:41:21.355Z,3.45
2023-01-03T06:42:44.254Z,3.43
2023-01-03T06:43:46.035Z,3.37
2023-01-03T06:45:07.564Z,3.09
2023-01-03T06:46:29.450Z,2.90
2023-01-03T06:47:49.700Z,2.87
2023-01-03T06:49:10.130Z,2.95
2023-01-03T06:50:30.290Z,2.96
2023-01-03T06:51:51.637Z,2.98
2023-01-03T06:53:11.716Z,3.06
2023-01-03T06:54:22.200Z,3.12
2023-01-03T06:55:23.734Z,3.17
2023-01-03T06:56:26.102Z,3.20
2023-01-03T06:57:27.947Z,3.22
2023-01-03T06:58:29.926Z,3.29
2023-01-03T06:59:31.735Z,3.34
2023-01-03T07:00:36.695Z,3.40
2023-01-03T07:01:39.373Z,3.45
2023-01-03T07:02:41.073Z,3.47
2023-01-03T07:03:42.702Z,3.50
2023-01-03T07:04:44.338Z,3.55
2023-01-03T07:05:45.949Z,3.60
2023-01-03T07:06:47.553Z,3.62
2023-01-03T07:07:49.307Z,3.64
2023-01-03T07:08:51.554Z,3.66
2023-01-03T07:09:53.220Z,3.62
2023-01-03T07:10:55.429Z,3.65
2023-01-03T07:11:57.019Z,3.67
2023-01-03T07:13:19.770Z,3.70
2023-01-03T07:14:21.341Z,3.69
2023-01-03T07:15:22.919Z,3.62
2023-01-03T07:16:31.901Z,3.56
2023-01-03T07:17:33.584Z,3.54
2023-01-03T07:18:35.275Z,3.58
2023-01-03T07:19:36.810Z,3.53
2023-01-03T07:20:45.156Z,3.49
2023-01-03T07:21:47.201Z,3.54
2023-01-03T07:22:48.754Z,3.54
2023-01-03T07:23:52.374Z,3.48
2023-01-03T07:24:53.888Z,3.45
2023-01-03T07:25:56.046Z,3.43
2023-01-03T07:26:57.526Z,3.40
2023-01-03T07:28:05.748Z,3.32
2023-01-03T07:29:10.414Z,3.27
2023-01-03T07:30:12.450Z,3.24
2023-01-03T07:31:14.074Z,3.23
2023-01-03T07:32:15.732Z,3.21
2023-01-03T07:33:18.619Z,3.16
2023-01-03T07:34:20.147Z,3.09
2023-01-03T07:35:21.679Z,3.10
2023-01-03T07:36:23.265Z,3.14
2023-01-03T07:37:24.825Z,3.21
2023-01-03T07:38:26.384Z,3.18
2023-01-03T07:39:27.911Z,3.15
2023-01-03T07:40:30.141Z,3.09
2023-01-03T07:41:50.062Z,3.09
2023-01-03T07:43:10.115Z,3.08
2023-01-03T07:44:11.924Z,3.00
2023-01-03T07:45:13.499Z,3.02
2023-01-03T07:46:16.142Z,2.95
2023-01-03T07:47:17.755Z,2.91
2023-01-03T07:48:19.265Z,2.86
2023-01-03T07:49:20.819Z,2.82
2023-01-03T07:50:22.394Z,2.86
2023-01-03T07:51:23.962Z,2.88
2023-01-03T07:52:25.480Z,2.94
2023-01-03T07:53:27.870Z,3.02
2023-01-03T07:54:29.480Z,3.05
2023-01-03T07:55:35.337Z,3.00
2023-01-03T07:56:37.178Z,2.94
2023-01-03T07:57:38.899Z,2.81
2023-01-03T07:58:42.979Z,2.74
2023-01-03T07:59:44.529Z,2.76
2023-01-03T08:00:46.142Z,2.87
2023-01-03T08:01:47.830Z,2.99
2023-01-03T08:02:53.368Z,2.94
2023-01-03T08:03:55.087Z,2.92
2023-01-03T08:04:56.782Z,2.95
2023-01-03T08:06:03.619Z,2.91
2023-01-03T08:07:05.157Z,2.93
2023-01-03T08:08:06.888Z,2.93
2023-01-03T08:09:27.230Z,2.98
2023-01-03T08:10:49.052Z,3.27
2023-01-03T08:12:08.982Z,3.13
2023-01-03T08:13:19.933Z,3.16
2023-01-03T08:14:25.707Z,3.16
2023-01-03T08:15:28.566Z,3.19
2023-01-03T08:16:30.137Z,3.23
2023-01-03T08:17:31.771Z,3.29
2023-01-03T08:18:33.299Z,3.26
2023-01-03T08:19:37.813Z,3.24
2023-01-03T08:20:43.460Z,3.21
2023-01-03T08:21:45.052Z,3.23
2023-01-03T08:22:46.589Z,3.25
2023-01-03T08:23:48.932Z,3.23
2023-01-03T08:24:50.676Z,3.19
2023-01-03T08:25:52.844Z,3.22
2023-01-03T08:26:54.416Z,3.27
2023-01-03T08:28:00.748Z,3.33
2023-01-03T08:29:02.301Z,3.35
2023-01-03T08:30:04.597Z,3.34
2023-01-03T08:31:13.183Z,3.23
2023-01-03T08:32:15.639Z,3.20
2023-01-03T08:33:19.133Z,3.06
2023-01-03T08:34:29.105Z,3.05
2023-01-03T08:35:34.866Z,3.06
2023-01-03T08:36:45.470Z,3.05
2023-01-03T08:37:48.838Z,3.11
2023-01-03T08:39:00.618Z,3.19
2023-01-03T08:40:04.944Z,3.30
2023-01-03T08:41:10.006Z,3.38
2023-01-03T08:42:17.280Z,3.48
2023-01-03T08:43:19.292Z,3.52
2023-01-03T08:44:20.883Z,3.46
2023-01-03T08:45:22.539Z,3.34
2023-01-03T08:46:24.293Z,3.28
2023-01-03T08:47:26.354Z,3.36
2023-01-03T08:48:28.176Z,3.36
2023-01-03T08:49:30.048Z,3.38
2023-01-03T08:50:32.120Z,3.44
2023-01-03T08:51:33.747Z,3.39
2023-01-03T08:52:35.683Z,3.37
2023-01-03T08:53:37.341Z,3.37
2023-01-03T08:54:39.526Z,3.18
2023-01-03T08:55:41.322Z,3.03
2023-01-03T08:56:42.931Z,3.10
2023-01-03T08:57:44.504Z,3.12
2023-01-03T08:58:46.339Z,3.11
2023-01-03T08:59:47.864Z,3.09
2023-01-03T09:00:49.432Z,3.14
2023-01-03T09:01:51.217Z,3.24
2023-01-03T09:02:53.102Z,3.33
2023-01-03T09:03:54.895Z,3.35
2023-01-03T09:04:56.621Z,3.28
2023-01-03T09:06:02.712Z,3.21
2023-01-03T09:07:05.580Z,3.33
2023-01-03T09:08:07.356Z,3.38
2023-01-03T09:09:09.936Z,3.43
2023-01-03T09:10:11.706Z,3.38
2023-01-03T09:11:13.271Z,3.38
2023-01-03T09:12:14.831Z,3.48
2023-01-03T09:13:16.380Z,3.58
2023-01-03T09:14:18.041Z,3.64
2023-01-03T09:15:19.919Z,3.64
2023-01-03T09:16:21.558Z,3.64
2023-01-03T09:17:23.222Z,3.60
2023-01-03T09:18:24.756Z,3.55
2023-01-03T09:19:26.317Z,3.58
2023-01-03T09:20:27.876Z,3.57
2023-01-03T09:21:29.610Z,3.47
2023-01-03T09:22:31.192Z,3.27
2023-01-03T09:23:34.030Z,3.21
2023-01-03T09:24:35.599Z,3.19
2023-01-03T09:25:37.777Z,3.25
2023-01-03T09:26:39.434Z,3.11
2023-01-03T09:27:48.082Z,3.08
2023-01-03T09:28:50.220Z,3.12
2023-01-03T09:29:53.196Z,3.14
2023-01-03T09:30:55.023Z,3.20
2023-01-03T09:31:56.631Z,3.24
2023-01-03T09:32:58.178Z,3.29
2023-01-03T09:34:05.348Z,3.30
2023-01-03T09:35:07.531Z,3.37
2023-01-03T09:36:09.169Z,3.43
2023-01-03T09:37:10.747Z,3.50
2023-01-03T09:38:12.341Z,3.57
2023-01-03T09:39:14.433Z,3.57
2023-01-03T09:40:16.366Z,3.58
2023-01-03T09:41:25.736Z,3.62
2023-01-03T09:42:47.488Z,3.64
2023-01-03T09:43:52.581Z,3.66
2023-01-03T09:44:54.388Z,3.73
2023-01-03T09:46:01.619Z,3.78
2023-01-03T09:47:04.780Z,3.82
2023-01-03T09:48:07.113Z,3.77
2023-01-03T09:49:12.539Z,3.63
2023-01-03T09:50:39.237Z,3.54
2023-01-03T09:52:04.997Z,3.46
2023-01-03T09:53:25.296Z,3.54
2023-01-03T09:54:57.186Z,3.68
2023-01-03T09:56:19.466Z,3.74
2023-01-03T09:57:49.503Z,3.55
2023-01-03T09:59:32.287Z,3.67
2023-01-03T10:01:00.643Z,3.78
2023-01-03T10:02:45.959Z,3.86
2023-01-03T10:04:18.118Z,3.86
2023-01-03T10:06:11.102Z,3.99
2023-01-03T10:07:28.275Z,4.10
2023-01-03T10:09:02.971Z,4.15
2023-01-03T10:10:43.214Z,4.21
2023-01-03T10:12:05.799Z,4.29
2023-01-03T10:13:25.650Z,4.33
2023-01-03T10:14:42.092Z,4.38
2023-01-03T10:16:12.914Z,4.34
2023-01-03T10:17:53.731Z,4.34
2023-01-03T10:19:50.334Z,4.46
2023-01-03T10:20:57.390Z,4.45
2023-01-03T10:22:14.919Z,4.44
2023-01-03T10:23:18.388Z,4.27
2023-01-03T10:24:32.252Z,4.02
2023-01-03T10:25:36.469Z,3.83
2023-01-03T10:26:38.022Z,3.91
2023-01-03T10:27:46.885Z,3.81
2023-01-03T10:28:48.616Z,3.58
2023-01-03T10:29:53.942Z,3.55
2023-01-03T10:31:14.489Z,3.49
2023-01-03T10:32:36.577Z,3.59
2023-01-03T10:33:47.256Z,3.69
2023-01-03T10:35:16.742Z,3.68
2023-01-03T10:36:20.867Z,3.59
2023-01-03T10:37:23.875Z,3.56
2023-01-03T10:38:26.192Z,3.48
2023-01-03T10:39:31.756Z,3.43
2023-01-03T10:40:44.466Z,3.38
2023-01-03T10:41:48.363Z,3.34
2023-01-03T10:42:50.506Z,3.40
2023-01-03T10:44:03.543Z,3.42
2023-01-03T10:45:10.600Z,3.59
2023-01-03T10:46:16.824Z,3.74
2023-01-03T10:47:18.466Z,3.85
2023-01-03T10:48:20.043Z,3.93
2023-01-03T10:49:27.853Z,3.90
2023-01-03T10:50:37.793Z,3.92
2023-01-03T10:51:49.769Z,3.88
2023-01-03T10:52:58.324Z,3.92
2023-01-03T10:54:09.656Z,4.04
2023-01-03T10:55:14.988Z,4.20
2023-01-03T10:56:17.171Z,4.34
2023-01-03T10:57:40.072Z,4.45
2023-01-03T10:58:41.628Z,4.50
2023-01-03T10:59:49.320Z,4.53
2023-01-03T11:01:09.838Z,4.56
2023-01-03T11:02:16.530Z,4.65
2023-01-03T11:03:19.650Z,4.73
2023-01-03T11:04:21.341Z,4.75
2023-01-03T11:05:25.446Z,4.84
2023-01-03T11:06:27.423Z,4.82
2023-01-03T11:07:29.464Z,4.86
2023-01-03T11:08:56.433Z,4.86
2023-01-03T11:09:58.513Z,5.00
2023-01-03T11:11:00.801Z,5.03
2023-01-03T11:12:38.756Z,5.08
2023-01-03T11:13:42.255Z,4.85
2023-01-03T11:14:57.802Z,4.68
2023-01-03T11:16:01.871Z,4.76
2023-01-03T11:17:05.844Z,4.79
2023-01-03T11:18:18.379Z,4.70
2023-01-03T11:19:20.306Z,4.57
2023-01-03T11:20:35.658Z,4.62
2023-01-03T11:21:51.557Z,4.76
2023-01-03T11:23:00.850Z,4.87
2023-01-03T11:24:08.503Z,4.77
2023-01-03T11:25:13.092Z,4.59
2023-01-03T11:26:43.222Z,4.48
2023-01-03T11:27:58.400Z,4.46
2023-01-03T11:29:17.114Z,4.48
2023-01-03T11:30:27.847Z,4.54
2023-01-03T11:31:33.721Z,4.52
2023-01-03T11:32:47.161Z,4.45
2023-01-03T11:34:05.788Z,4.42
2023-01-03T11:35:26.382Z,4.46
2023-01-03T11:37:00.133Z,4.56
2023-01-03T11:38:39.040Z,4.63
2023-01-03T11:39:46.775Z,4.65
2023-01-03T11:40:52.326Z,4.71
2023-01-03T11:42:27.242Z,4.77
2023-01-03T11:43:52.118Z,4.89
2023-01-03T11:45:10.417Z,5.02
2023-01-03T11:46:21.251Z,5.01
2023-01-03T11:47:25.706Z,4.99
2023-01-03T11:49:05.936Z,4.99
2023-01-03T11:50:41.535Z,5.09
2023-01-03T11:51:48.850Z,5.08
2023-01-03T11:53:00.883Z,5.10
2023-01-03T11:54:07.284Z,5.00
2023-01-03T11:55:08.832Z,5.05
2023-01-03T11:56:34.827Z,5.09
2023-01-03T11:57:39.235Z,5.18
2023-01-03T11:59:18.075Z,5.32
2023-01-03T12:00:28.627Z,5.46
2023-01-03T12:01:49.237Z,5.49
2023-01-03T12:03:03.227Z,5.48
2023-01-03T12:04:38.595Z,5.46
2023-01-03T12:05:46.285Z,5.50
2023-01-03T12:07:37.396Z,5.54
2023-01-03T12:08:44.881Z,5.69
2023-01-03T12:10:05.300Z,5.82
2023-01-03T12:11:28.080Z,5.82
2023-01-03T12:12:29.554Z,5.79
2023-01-03T12:13:59.445Z,5.90
2023-01-03T12:15:12.382Z,5.95
2023-01-03T12:16:25.358Z,6.07
2023-01-03T12:17:54.016Z,6.19
2023-01-03T12:19:02.004Z,6.23
2023-01-03T12:20:19.601Z,6.25
2023-01-03T12:21:37.594Z,6.30
2023-01-03T12:22:49.135Z,6.26
2023-01-03T12:23:56.253Z,6.32
2023-01-03T12:25:16.596Z,6.39
2023-01-03T12:26:19.116Z,6.36
2023-01-03T12:27:44.385Z,6.38
2023-01-03T12:28:56.346Z,6.37
2023-01-03T12:30:02.498Z,6.34
2023-01-03T12:31:31.965Z,6.35
2023-01-03T12:32:59.691Z,6.37
2023-01-03T12:34:19.803Z,6.42
2023-01-03T12:35:51.111Z,6.46
2023-01-03T12:37:17.065Z,6.48
2023-01-03T12:38:25.454Z,6.51
2023-01-03T12:39:35.528Z,6.55
2023-01-03T12:40:54.244Z,6.63
2023-01-03T12:42:14.139Z,6.70
2023-01-03T12:43:33.555Z,6.77
2023-01-03T12:44:40.749Z,6.82
2023-01-03T12:46:00.897Z,6.87
2023-01-03T12:47:06.406Z,6.90
2023-01-03T12:48:10.949Z,7.02
2023-01-03T12:49:15.111Z,7.09
2023-01-03T12:50:30.692Z,7.18
2023-01-03T12:51:32.567Z,7.25
2023-01-03T12:52:35.601Z,7.31
2023-01-03T12:53:41.093Z,7.36
2023-01-03T12:54:52.376Z,7.39
2023-01-03T12:56:18.190Z,7.41
2023-01-03T12:57:25.758Z,7.45
2023-01-03T12:58:27.377Z,7.43
2023-01-03T12:59:43.833Z,7.40
2023-01-03T13:01:08.642Z,7.39
2023-01-03T13:02:47.265Z,7.52
2023-01-03T13:03:55.105Z,7.49
2023-01-03T13:05:16.510Z,7.41
2023-01-03T13:06:25.928Z,7.41
2023-01-03T13:07:34.108Z,7.42
2023-01-03T13:08:57.895Z,7.42
2023-01-03T13:10:05.672Z,7.50
2023-01-03T13:11:15.535Z,7.53
2023-01-03T13:12:21.406Z,7.57
2023-01-03T13:13:23.106Z,7.63
2023-01-03T13:14:27.889Z,7.71
2023-01-03T13:15:36.702Z,7.69
2023-01-03T13:16:44.460Z,7.68
2023-01-03T13:17:47.867Z,7.72
2023-01-03T13:18:49.977Z,7.74
2023-01-03T13:20:26.498Z,7.81
2023-01-03T13:21:49.405Z,7.84
2023-01-03T13:23:01.256Z,7.81
2023-01-03T13:24:02.818Z,7.76
2023-01-03T13:25:42.375Z,7.74
2023-01-03T13:27:22.760Z,7.74
2023-01-03T13:28:24.799Z,7.71
2023-01-03T13:29:35.110Z,7.78
2023-01-03T13:30:38.532Z,7.77
2023-01-03T13:31:40.664Z,7.77
2023-01-03T13:33:04.112Z,7.79
2023-01-03T13:34:38.078Z,7.81
2023-01-03T13:35:42.557Z,7.86
2023-01-03T13:37:08.276Z,7.87
2023-01-03T13:38:32.281Z,7.82
2023-01-03T13:39:38.183Z,7.77
2023-01-03T13:41:16.553Z,7.82
2023-01-03T13:42:33.653Z,7.96
2023-01-03T13:43:40.038Z,7.98
2023-01-03T13:44:41.945Z,7.97
2023-01-03T13:45:43.462Z,7.97
2023-01-03T13:46:45.743Z,7.96
2023-01-03T13:47:52.785Z,7.94
2023-01-03T13:48:58.858Z,8.02
2023-01-03T13:50:00.805Z,8.08
2023-01-03T13:51:15.539Z,8.16
2023-01-03T13:52:55.684Z,8.28
2023-01-03T13:54:23.825Z,8.33
2023-01-03T13:55:39.924Z,8.35
2023-01-03T13:56:44.540Z,8.39
2023-01-03T13:57:53.383Z,8.43
2023-01-03T13:59:15.226Z,8.45
2023-01-03T14:00:22.370Z,8.40
2023-01-03T14:01:42.082Z,8.35
2023-01-03T14:03:08.005Z,8.38
2023-01-03T14:04:23.172Z,8.43
2023-01-03T14:05:50.990Z,8.43
2023-01-03T14:06:52.496Z,8.45
2023-01-03T14:08:35.440Z,8.48
2023-01-03T14:09:54.462Z,8.55
2023-01-03T14:11:21.765Z,8.57
2023-01-03T14:12:44.703Z,8.63
2023-01-03T14:13:53.284Z,8.65
2023-01-03T14:14:57.024Z,8.67
2023-01-03T14:16:20.880Z,8.65
2023-01-03T14:17:32.306Z,8.68
2023-01-03T14:18:35.525Z,8.73
2023-01-03T14:19:40.954Z,8.78
2023-01-03T14:20:48.058Z,9.04
2023-01-03T14:22:34.844Z,9.15
2023-01-03T14:24:58.223Z,9.14
2023-01-03T14:26:14.710Z,9.12
2023-01-03T14:27:18.561Z,9.15
2023-01-03T14:28:26.141Z,9.16
2023-01-03T14:29:28.664Z,9.18
2023-01-03T14:30:32.465Z,9.16
2023-01-03T14:31:48.083Z,9.17
2023-01-03T14:32:49.996Z,9.17
2023-01-03T14:34:18.952Z,9.17
2023-01-03T14:35:35.783Z,9.18
2023-01-03T14:36:46.342Z,9.19
2023-01-03T14:37:47.886Z,9.17
2023-01-03T14:38:52.891Z,9.18
2023-01-03T14:40:01.950Z,9.19
2023-01-03T14:41:03.810Z,9.19
2023-01-03T14:42:07.685Z,9.11
2023-01-03T14:43:16.141Z,9.01
2023-01-03T14:44:22.566Z,8.88
2023-01-03T14:45:24.115Z,8.79
2023-01-03T14:46:28.166Z,8.78
2023-01-03T14:47:35.489Z,8.77
2023-01-03T14:48:37.235Z,8.78
2023-01-03T14:49:47.706Z,8.77
2023-01-03T14:50:50.143Z,8.72
2023-01-03T14:52:01.085Z,8.66
2023-01-03T14:53:03.443Z,8.55
2023-01-03T14:54:06.261Z,8.51
2023-01-03T14:55:16.552Z,8.48
2023-01-03T14:56:23.900Z,8.48
2023-01-03T14:57:27.561Z,8.48
2023-01-03T14:58:34.809Z,8.51
2023-01-03T14:59:36.583Z,8.55
2023-01-03T15:00:39.636Z,8.57
2023-01-03T15:01:42.742Z,8.58
2023-01-03T15:02:45.461Z,8.65
2023-01-03T15:03:49.033Z,8.67
2023-01-03T15:04:55.228Z,8.69
2023-01-03T15:06:00.970Z,8.71
2023-01-03T15:07:13.085Z,8.74
2023-01-03T15:08:15.291Z,8.66
2023-01-03T15:09:22.561Z,8.59
2023-01-03T15:10:39.790Z,8.59
2023-01-03T15:11:59.150Z,8.64
2023-01-03T15:13:04.918Z,8.67
2023-01-03T15:14:06.974Z,8.68